»·PEaware :: SWA2796 KLAS-KSAN

SWA2796 :: KLAS-KSAN

FLIGHT INFORMATION

Flight Status: Arrived
Operator:
Southwest Airlines
More flights by this operator :: More flights under this callsign
Pilot: Tanner C. (11250)
Aircraft: BOEING 737-600
(B736)
More flights by this aircraft type
Origin: KLAS Harry Reid Intl
United States
Destination: KSAN San Diego Intl-Lindbergh
United States
More flights between these airports :: More routes between these airports
Route: RADYR2 LVELL LUCKI1
File this flight plan on PilotEdge
Remarks:
Altitude:
(Current/Filed)
28,000ft
Speed:
(Current/Filed)
440kts
Departed: 17-Nov-22 03:44 PM
Arrived: 17-Nov-22 04:28 PM
Distance/Time
Traveled:
225nm/0:44
Distance/Time
To Go:
Arrived

Flight Plot

Page will automatically refresh every two minutes.

Flight plan parsing failed; only flown route is shown


Map Options




Map Legend


Flown Route
Filed Route
Departure Airport
Arrival Airport
Navaid (VOR, NDB)
Fix

Horizontal Profiles

Position Reports

Time Latitude Longitude Heading Altitude Ground
Speed
17-Nov-22 15:23 36.082216 -115.146864 256 2187ft 0kts
17-Nov-22 15:24 36.082216 -115.146864 256 2187ft 0kts
17-Nov-22 15:25 36.082216 -115.146864 256 2187ft 0kts
17-Nov-22 15:26 36.082216 -115.146864 256 2187ft 0kts
17-Nov-22 15:27 36.082216 -115.146864 256 2187ft 0kts
17-Nov-22 15:28 36.082216 -115.146864 256 2187ft 0kts
17-Nov-22 15:29 36.082216 -115.146864 256 2187ft 0kts
17-Nov-22 15:30 36.082216 -115.146864 256 2187ft 0kts
17-Nov-22 15:31 36.082216 -115.146864 256 2187ft 0kts
17-Nov-22 15:32 36.082317 -115.146336 256 2187ft 4kts
17-Nov-22 15:33 36.082325 -115.146296 256 2187ft 0kts
17-Nov-22 15:34 36.082325 -115.146296 256 2187ft 0kts
17-Nov-22 15:35 36.082295 -115.146420 251 2187ft 0kts
17-Nov-22 15:36 36.082090 -115.146334 142 2187ft 1kts
17-Nov-22 15:37 36.080039 -115.144889 164 2187ft 8kts
17-Nov-22 15:38 36.078313 -115.144105 94 2187ft 7kts
17-Nov-22 15:39 36.078338 -115.136655 93 2187ft 15kts
17-Nov-22 15:40 36.078305 -115.127845 89 2187ft 30kts
17-Nov-22 15:41 36.077680 -115.121716 129 2187ft 8kts
17-Nov-22 15:42 36.077335 -115.121301 153 2187ft 7kts
17-Nov-22 15:43 36.076435 -115.135020 269 2193ft 141kts
17-Nov-22 15:44 36.077187 -115.190650 271 4306ft 177kts
17-Nov-22 15:45 36.064371 -115.256566 226 6118ft 220kts
17-Nov-22 15:46 36.002099 -115.287721 199 8649ft 269kts
17-Nov-22 15:47 35.924351 -115.309064 194 11123ft 304kts
17-Nov-22 15:48 35.834393 -115.332537 194 13154ft 348kts
17-Nov-22 15:49 35.737739 -115.356452 195 16173ft 363kts
17-Nov-22 15:50 35.636852 -115.380547 192 18976ft 377kts
17-Nov-22 15:51 35.529094 -115.381298 181 21499ft 398kts
17-Nov-22 15:52 35.416826 -115.374000 181 23807ft 412kts
17-Nov-22 15:53 35.300063 -115.365927 181 25876ft 428kts
17-Nov-22 15:54 35.180592 -115.357470 182 28082ft 433kts
17-Nov-22 15:55 35.058124 -115.348915 182 28187ft 449kts
17-Nov-22 15:56 34.931819 -115.340147 182 28211ft 462kts
17-Nov-22 15:57 34.801921 -115.335049 190 28211ft 465kts
17-Nov-22 15:58 34.679302 -115.376057 205 28211ft 458kts
17-Nov-22 15:59 34.558550 -115.428469 205 28268ft 460kts
17-Nov-22 16:00 34.438706 -115.480519 205 28297ft 456kts
17-Nov-22 16:01 34.321587 -115.537399 214 28294ft 448kts
17-Nov-22 16:02 34.212777 -115.610005 209 28291ft 451kts
17-Nov-22 16:03 34.095777 -115.667979 207 28276ft 449kts
17-Nov-22 16:04 33.980307 -115.723088 206 28266ft 447kts
17-Nov-22 16:05 33.864859 -115.778572 207 28271ft 446kts
17-Nov-22 16:06 33.749447 -115.835031 206 28183ft 446kts
17-Nov-22 16:07 33.633974 -115.889086 206 27223ft 447kts
17-Nov-22 16:08 33.521529 -115.952120 221 25722ft 441kts
17-Nov-22 16:09 33.446824 -116.062826 238 24316ft 407kts
17-Nov-22 16:10 33.385519 -116.167616 238 23279ft 368kts
17-Nov-22 16:11 33.315839 -116.261113 216 21199ft 385kts
17-Nov-22 16:12 33.221695 -116.318096 209 18815ft 372kts
17-Nov-22 16:13 33.129397 -116.371948 209 16750ft 367kts
17-Nov-22 16:14 33.039205 -116.424545 208 14433ft 350kts
17-Nov-22 16:15 32.964390 -116.485918 222 12768ft 316kts
17-Nov-22 16:16 32.896479 -116.554248 222 10937ft 316kts
17-Nov-22 16:17 32.832994 -116.618101 222 9942ft 267kts
17-Nov-22 16:18 32.775554 -116.678480 232 8252ft 258kts
17-Nov-22 16:19 32.740807 -116.751937 239 7305ft 259kts
17-Nov-22 16:20 32.707507 -116.822630 247 5857ft 233kts
17-Nov-22 16:21 32.684909 -116.890909 252 4902ft 198kts
17-Nov-22 16:23 32.675526 -116.951606 286 4069ft 192kts
17-Nov-22 16:24 32.690155 -117.011367 290 3176ft 177kts
17-Nov-22 16:25 32.703575 -117.066427 290 2227ft 149kts
17-Nov-22 16:26 32.714806 -117.112757 289 1778ft 139kts
17-Nov-22 16:27 32.725162 -117.155128 288 609ft 128kts
17-Nov-22 16:28 32.733574 -117.189558 284 26ft 36kts
17-Nov-22 16:29 32.733164 -117.191905 246 26ft 4kts
17-Nov-22 16:30 32.733908 -117.195339 287 26ft 11kts
17-Nov-22 16:31 32.733208 -117.196072 197 26ft 0kts
17-Nov-22 16:32 32.733209 -117.196071 197 26ft 0kts
17-Nov-22 16:33 32.733209 -117.196071 197 26ft 0kts

Navigation Log

Ident Type
Flight plan parsing failed, navigation log unavailable